sensor_id;sensor_type;location;lat;lon;timestamp;pressure;altitude;pressure_sealevel;temperature;humidity
51439;BME280;38816;51.142;-0.974;2022-09-03T00:00:04;99468.84;;;12.97;100.00
51439;BME280;38816;51.142;-0.974;2022-09-03T00:02:37;99456.84;;;12.92;100.00
51439;BME280;38816;51.142;-0.974;2022-09-03T00:05:17;99465.41;;;12.95;100.00
51439;BME280;38816;51.142;-0.974;2022-09-03T00:07:54;99468.03;;;12.93;100.00
51439;BME280;38816;51.142;-0.974;2022-09-03T00:10:27;99465.44;;;12.91;100.00
51439;BME280;38816;51.142;-0.974;2022-09-03T00:12:58;99469.75;;;12.92;100.00
51439;BME280;38816;51.142;-0.974;2022-09-03T00:15:28;99474.91;;;12.91;100.00
51439;BME280;38816;51.142;-0.974;2022-09-03T00:18:06;99466.31;;;12.90;100.00
51439;BME280;38816;51.142;-0.974;2022-09-03T00:23:06;99471.47;;;12.86;100.00
51439;BME280;38816;51.142;-0.974;2022-09-03T00:25:37;99468.06;;;12.85;100.00
51439;BME280;38816;51.142;-0.974;2022-09-03T00:28:10;99457.75;;;12.84;100.00
51439;BME280;38816;51.142;-0.974;2022-09-03T00:30:37;99463.75;;;12.84;100.00
51439;BME280;38816;51.142;-0.974;2022-09-03T00:33:14;99458.63;;;12.81;100.00
51439;BME280;38816;51.142;-0.974;2022-09-03T00:35:50;99451.75;;;12.80;100.00
51439;BME280;38816;51.142;-0.974;2022-09-03T00:38:18;99447.47;;;12.73;100.00
51439;BME280;38816;51.142;-0.974;2022-09-03T00:48:25;99456.16;;;12.57;100.00
51439;BME280;38816;51.142;-0.974;2022-09-03T00:50:57;99457.00;;;12.56;100.00
51439;BME280;38816;51.142;-0.974;2022-09-03T01:01:53;99446.78;;;12.40;100.00
51439;BME280;38816;51.142;-0.974;2022-09-03T01:07:08;99453.66;;;12.37;100.00
51439;BME280;38816;51.142;-0.974;2022-09-03T01:10:01;99436.50;;;12.31;100.00
51439;BME280;38816;51.142;-0.974;2022-09-03T01:15:29;99444.22;;;12.31;100.00
51439;BME280;38816;51.142;-0.974;2022-09-03T01:37:37;99437.38;;;12.23;100.00
51439;BME280;38816;51.142;-0.974;2022-09-03T01:40:02;99431.38;;;12.19;100.00
51439;BME280;38816;51.142;-0.974;2022-09-03T01:51:21;99415.94;;;12.13;100.00
51439;BME280;38816;51.142;-0.974;2022-09-03T01:56:33;99407.38;;;11.97;100.00
51439;BME280;38816;51.142;-0.974;2022-09-03T01:59:08;99409.13;;;11.97;100.00
51439;BME280;38816;51.142;-0.974;2022-09-03T02:04:13;99434.03;;;11.95;100.00
51439;BME280;38816;51.142;-0.974;2022-09-03T02:06:41;99429.75;;;11.84;100.00
51439;BME280;38816;51.142;-0.974;2022-09-03T02:09:06;99442.63;;;11.90;100.00
51439;BME280;38816;51.142;-0.974;2022-09-03T02:11:32;99427.16;;;11.83;100.00
51439;BME280;38816;51.142;-0.974;2022-09-03T02:13:59;99416.84;;;11.74;100.00
51439;BME280;38816;51.142;-0.974;2022-09-03T02:16:29;99421.16;;;11.73;100.00
51439;BME280;38816;51.142;-0.974;2022-09-03T02:19:05;99422.88;;;11.71;100.00
51439;BME280;38816;51.142;-0.974;2022-09-03T02:21:37;99410.88;;;11.64;100.00
51439;BME280;38816;51.142;-0.974;2022-09-03T02:24:05;99400.59;;;11.55;100.00
51439;BME280;38816;51.142;-0.974;2022-09-03T02:26:32;99409.16;;;11.57;100.00
51439;BME280;38816;51.142;-0.974;2022-09-03T02:28:58;99403.16;;;11.55;100.00
51439;BME280;38816;51.142;-0.974;2022-09-03T02:31:23;99408.28;;;11.56;100.00
51439;BME280;38816;51.142;-0.974;2022-09-03T02:33:49;99402.31;;;11.57;100.00
51439;BME280;38816;51.142;-0.974;2022-09-03T02:36:18;99427.16;;;11.66;100.00
51439;BME280;38816;51.142;-0.974;2022-09-03T02:38:45;99419.44;;;11.69;100.00
51439;BME280;38816;51.142;-0.974;2022-09-03T02:41:11;99422.00;;;11.71;100.00
51439;BME280;38816;51.142;-0.974;2022-09-03T02:46:42;99403.13;;;11.73;100.00
51439;BME280;38816;51.142;-0.974;2022-09-03T02:49:08;99388.56;;;11.64;100.00
51439;BME280;38816;51.142;-0.974;2022-09-03T02:51:37;99392.84;;;11.67;100.00
51439;BME280;38816;51.142;-0.974;2022-09-03T02:54:03;99396.28;;;11.64;100.00
51439;BME280;38816;51.142;-0.974;2022-09-03T02:56:28;99404.84;;;11.65;100.00
51439;BME280;38816;51.142;-0.974;2022-09-03T02:58:54;99402.31;;;11.62;100.00
51439;BME280;38816;51.142;-0.974;2022-09-03T03:01:20;99409.16;;;11.55;100.00
51439;BME280;38816;51.142;-0.974;2022-09-03T03:03:46;99402.31;;;11.53;100.00
51439;BME280;38816;51.142;-0.974;2022-09-03T03:06:11;99403.16;;;11.55;100.00
51439;BME280;38816;51.142;-0.974;2022-09-03T03:08:39;99407.44;;;11.59;100.00
51439;BME280;38816;51.142;-0.974;2022-09-03T03:11:05;99405.72;;;11.67;100.00
51439;BME280;38816;51.142;-0.974;2022-09-03T03:13:31;99407.44;;;11.71;100.00
51439;BME280;38816;51.142;-0.974;2022-09-03T03:16:02;99404.00;;;11.72;100.00
51439;BME280;38816;51.142;-0.974;2022-09-03T03:18:28;99392.00;;;11.66;100.00
51439;BME280;38816;51.142;-0.974;2022-09-03T03:20:53;99387.69;;;11.70;100.00
51439;BME280;38816;51.142;-0.974;2022-09-03T03:23:19;99406.56;;;11.80;100.00
51439;BME280;38816;51.142;-0.974;2022-09-03T03:25:44;99408.28;;;11.81;100.00
51439;BME280;38816;51.142;-0.974;2022-09-03T03:28:10;99399.69;;;11.79;100.00
51439;BME280;38816;51.142;-0.974;2022-09-03T03:30:37;99397.13;;;11.80;100.00
51439;BME280;38816;51.142;-0.974;2022-09-03T03:33:03;99409.16;;;11.84;100.00
51439;BME280;38816;51.142;-0.974;2022-09-03T03:35:29;99410.88;;;11.82;100.00
51439;BME280;38816;51.142;-0.974;2022-09-03T03:37:57;99396.25;;;11.74;100.00
51439;BME280;38816;51.142;-0.974;2022-09-03T03:40:23;99399.72;;;11.68;100.00
51439;BME280;38816;51.142;-0.974;2022-09-03T03:42:49;99412.56;;;11.65;100.00
51439;BME280;38816;51.142;-0.974;2022-09-03T03:45:15;99401.44;;;11.55;100.00
51439;BME280;38816;51.142;-0.974;2022-09-03T03:47:40;99412.59;;;11.59;100.00
51439;BME280;38816;51.142;-0.974;2022-09-03T03:50:06;99402.28;;;11.59;100.00
51439;BME280;38816;51.142;-0.974;2022-09-03T03:52:32;99413.44;;;11.61;100.00
51439;BME280;38816;51.142;-0.974;2022-09-03T03:54:57;99411.72;;;11.61;100.00
51439;BME280;38816;51.142;-0.974;2022-09-03T03:57:23;99410.88;;;11.58;100.00
51439;BME280;38816;51.142;-0.974;2022-09-03T03:59:49;99413.44;;;11.65;100.00
51439;BME280;38816;51.142;-0.974;2022-09-03T04:02:16;99400.56;;;11.61;100.00
51439;BME280;38816;51.142;-0.974;2022-09-03T04:04:41;99394.59;;;11.50;100.00
51439;BME280;38816;51.142;-0.974;2022-09-03T04:07:07;99391.16;;;11.40;100.00
51439;BME280;38816;51.142;-0.974;2022-09-03T04:09:33;99389.44;;;11.39;100.00
51439;BME280;38816;51.142;-0.974;2022-09-03T04:11:59;99394.56;;;11.39;100.00
51439;BME280;38816;51.142;-0.974;2022-09-03T04:14:24;99388.59;;;11.41;100.00
51439;BME280;38816;51.142;-0.974;2022-09-03T04:16:51;99398.00;;;11.43;100.00
51439;BME280;38816;51.142;-0.974;2022-09-03T04:19:17;99388.59;;;11.32;100.00
51439;BME280;38816;51.142;-0.974;2022-09-03T04:21:43;99390.28;;;11.29;100.00
51439;BME280;38816;51.142;-0.974;2022-09-03T04:24:09;99394.59;;;11.33;100.00
51439;BME280;38816;51.142;-0.974;2022-09-03T04:26:35;99382.59;;;11.30;100.00
51439;BME280;38816;51.142;-0.974;2022-09-03T04:29:04;99380.03;;;11.27;100.00
51439;BME280;38816;51.142;-0.974;2022-09-03T04:31:30;99383.44;;;11.29;100.00
51439;BME280;38816;51.142;-0.974;2022-09-03T04:33:56;99406.59;;;11.38;100.00
51439;BME280;38816;51.142;-0.974;2022-09-03T04:36:24;99396.31;;;11.40;100.00
51439;BME280;38816;51.142;-0.974;2022-09-03T04:38:52;99393.75;;;11.45;100.00
51439;BME280;38816;51.142;-0.974;2022-09-03T04:41:23;99374.00;;;11.34;100.00
51439;BME280;38816;51.142;-0.974;2022-09-03T04:43:51;99392.88;;;11.41;100.00
51439;BME280;38816;51.142;-0.974;2022-09-03T04:46:16;99378.31;;;11.35;100.00
51439;BME280;38816;51.142;-0.974;2022-09-03T04:48:42;99373.16;;;11.35;100.00
51439;BME280;38816;51.142;-0.974;2022-09-03T04:51:16;99368.00;;;11.35;100.00
51439;BME280;38816;51.142;-0.974;2022-09-03T04:53:44;99373.97;;;11.44;100.00
51439;BME280;38816;51.142;-0.974;2022-09-03T04:56:15;99377.41;;;11.47;100.00
51439;BME280;38816;51.142;-0.974;2022-09-03T04:58:42;99381.72;;;11.53;100.00
51439;BME280;38816;51.142;-0.974;2022-09-03T05:01:14;99377.41;;;11.56;100.00
51439;BME280;38816;51.142;-0.974;2022-09-03T05:03:40;99381.69;;;11.60;100.00
51439;BME280;38816;51.142;-0.974;2022-09-03T05:06:06;99370.53;;;11.63;100.00
51439;BME280;38816;51.142;-0.974;2022-09-03T05:08:34;99379.97;;;11.65;100.00
51439;BME280;38816;51.142;-0.974;2022-09-03T05:11:04;99362.81;;;11.60;100.00
51439;BME280;38816;51.142;-0.974;2022-09-03T05:13:31;99369.66;;;11.65;100.00
51439;BME280;38816;51.142;-0.974;2022-09-03T05:15:59;99373.09;;;11.66;100.00
51439;BME280;38816;51.142;-0.974;2022-09-03T05:18:24;99369.69;;;11.64;100.00
51439;BME280;38816;51.142;-0.974;2022-09-03T05:21:00;99385.97;;;11.71;100.00
51439;BME280;38816;51.142;-0.974;2022-09-03T05:23:27;99372.25;;;11.65;100.00
51439;BME280;38816;51.142;-0.974;2022-09-03T05:25:57;99383.41;;;11.72;100.00
51439;BME280;38816;51.142;-0.974;2022-09-03T05:28:24;99379.09;;;11.65;100.00
51439;BME280;38816;51.142;-0.974;2022-09-03T05:31:12;99372.28;;;11.62;100.00
51439;BME280;38816;51.142;-0.974;2022-09-03T05:33:42;99376.53;;;11.68;100.00
51439;BME280;38816;51.142;-0.974;2022-09-03T05:36:10;99365.38;;;11.68;100.00
51439;BME280;38816;51.142;-0.974;2022-09-03T05:38:37;99361.94;;;11.72;100.00
51439;BME280;38816;51.142;-0.974;2022-09-03T05:41:05;99365.38;;;11.83;100.00
51439;BME280;38816;51.142;-0.974;2022-09-03T05:43:32;99362.78;;;11.87;100.00
51439;BME280;38816;51.142;-0.974;2022-09-03T05:46:09;99370.47;;;11.97;100.00
51439;BME280;38816;51.142;-0.974;2022-09-03T05:48:36;99376.47;;;12.08;100.00
51439;BME280;38816;51.142;-0.974;2022-09-03T05:51:10;99380.72;;;12.13;100.00
51439;BME280;38816;51.142;-0.974;2022-09-03T05:53:38;99382.44;;;12.14;100.00
51439;BME280;38816;51.142;-0.974;2022-09-03T05:56:06;99370.47;;;12.07;100.00
51439;BME280;38816;51.142;-0.974;2022-09-03T05:58:33;99385.00;;;12.22;100.00
51439;BME280;38816;51.142;-0.974;2022-09-03T06:00:59;99366.09;;;12.20;100.00
51439;BME280;38816;51.142;-0.974;2022-09-03T06:03:25;99378.94;;;12.35;100.00
51439;BME280;38816;51.142;-0.974;2022-09-03T06:05:51;99372.03;;;12.39;100.00
51439;BME280;38816;51.142;-0.974;2022-09-03T06:08:17;99379.72;;;12.50;100.00
51439;BME280;38816;51.142;-0.974;2022-09-03T06:10:42;99384.78;;;12.60;100.00
51439;BME280;38816;51.142;-0.974;2022-09-03T06:13:08;99395.06;;;12.71;100.00
51439;BME280;38816;51.142;-0.974;2022-09-03T06:15:33;99386.41;;;12.78;100.00
51439;BME280;38816;51.142;-0.974;2022-09-03T06:17:58;99391.56;;;12.78;100.00
51439;BME280;38816;51.142;-0.974;2022-09-03T06:20:24;99391.56;;;12.81;100.00
51439;BME280;38816;51.142;-0.974;2022-09-03T06:22:52;99395.84;;;12.85;100.00
51439;BME280;38816;51.142;-0.974;2022-09-03T06:25:17;99402.69;;;12.92;100.00
51439;BME280;38816;51.142;-0.974;2022-09-03T06:27:43;99391.41;;;13.01;100.00
51439;BME280;38816;51.142;-0.974;2022-09-03T06:30:10;99397.41;;;13.05;100.00
51439;BME280;38816;51.142;-0.974;2022-09-03T06:32:45;99403.41;;;13.08;100.00
51439;BME280;38816;51.142;-0.974;2022-09-03T06:35:11;99397.41;;;13.06;100.00
51439;BME280;38816;51.142;-0.974;2022-09-03T06:37:40;99397.38;;;13.11;100.00
51439;BME280;38816;51.142;-0.974;2022-09-03T06:40:06;99405.03;;;13.22;100.00
51439;BME280;38816;51.142;-0.974;2022-09-03T06:42:39;99408.50;;;13.25;100.00
51439;BME280;38816;51.142;-0.974;2022-09-03T06:45:07;99405.88;;;13.30;100.00
51439;BME280;38816;51.142;-0.974;2022-09-03T06:47:33;99399.00;;;13.27;100.00
51439;BME280;38816;51.142;-0.974;2022-09-03T06:49:59;99411.81;;;13.39;100.00
51439;BME280;38816;51.142;-0.974;2022-09-03T06:52:26;99406.53;;;13.50;100.00
51439;BME280;38816;51.142;-0.974;2022-09-03T06:54:52;99420.28;;;13.57;100.00
51439;BME280;38816;51.142;-0.974;2022-09-03T06:57:17;99406.50;;;13.55;100.00
51439;BME280;38816;51.142;-0.974;2022-09-03T06:59:42;99415.03;;;13.66;100.00
51439;BME280;38816;51.142;-0.974;2022-09-03T07:02:09;99419.31;;;13.67;100.00
51439;BME280;38816;51.142;-0.974;2022-09-03T07:04:34;99423.53;;;13.76;100.00
51439;BME280;38816;51.142;-0.974;2022-09-03T07:07:00;99427.69;;;13.90;100.00
51439;BME280;38816;51.142;-0.974;2022-09-03T07:09:26;99426.56;;;14.13;100.00
51439;BME280;38816;51.142;-0.974;2022-09-03T07:11:52;99421.25;;;14.27;100.00
51439;BME280;38816;51.142;-0.974;2022-09-03T07:14:20;99429.69;;;14.42;100.00
51439;BME280;38816;51.142;-0.974;2022-09-03T07:16:48;99415.78;;;14.56;100.00
51439;BME280;38816;51.142;-0.974;2022-09-03T07:19:14;99417.22;;;14.75;100.00
51439;BME280;38816;51.142;-0.974;2022-09-03T07:21:41;99416.13;;;14.90;100.00
51439;BME280;38816;51.142;-0.974;2022-09-03T07:24:07;99425.38;;;15.08;100.00
51439;BME280;38816;51.142;-0.974;2022-09-03T07:26:38;99417.53;;;15.12;100.00
51439;BME280;38816;51.142;-0.974;2022-09-03T07:29:05;99431.94;;;15.30;100.00
51439;BME280;38816;51.142;-0.974;2022-09-03T07:31:37;99434.44;;;15.36;100.00
51439;BME280;38816;51.142;-0.974;2022-09-03T07:34:08;99434.41;;;15.38;100.00
51439;BME280;38816;51.142;-0.974;2022-09-03T07:36:38;99427.63;;;15.29;100.00
51439;BME280;38816;51.142;-0.974;2022-09-03T07:39:05;99437.16;;;15.29;100.00
51439;BME280;38816;51.142;-0.974;2022-09-03T07:41:31;99429.53;;;15.19;100.00
51439;BME280;38816;51.142;-0.974;2022-09-03T07:43:57;99410.75;;;15.05;100.00
51439;BME280;38816;51.142;-0.974;2022-09-03T07:46:31;99430.38;;;15.20;100.00
51439;BME280;38816;51.142;-0.974;2022-09-03T07:48:58;99421.69;;;15.24;100.00
51439;BME280;38816;51.142;-0.974;2022-09-03T07:51:27;99430.22;;;15.29;100.00
51439;BME280;38816;51.142;-0.974;2022-09-03T07:53:58;99440.34;;;15.44;100.00
51439;BME280;38816;51.142;-0.974;2022-09-03T07:56:25;99430.88;;;15.42;100.00
51439;BME280;38816;51.142;-0.974;2022-09-03T07:58:51;99435.75;;;15.60;100.00
51439;BME280;38816;51.142;-0.974;2022-09-03T08:01:19;99438.03;;;15.80;100.00
51439;BME280;38816;51.142;-0.974;2022-09-03T08:03:51;99428.22;;;15.98;100.00
51439;BME280;38816;51.142;-0.974;2022-09-03T08:06:19;99437.41;;;16.14;100.00
51439;BME280;38816;51.142;-0.974;2022-09-03T08:08:46;99433.75;;;16.24;100.00
51439;BME280;38816;51.142;-0.974;2022-09-03T08:11:14;99450.56;;;16.50;100.00
51439;BME280;38816;51.142;-0.974;2022-09-03T08:13:47;99453.50;;;16.75;100.00
51439;BME280;38816;51.142;-0.974;2022-09-03T08:16:15;99445.34;;;16.91;100.00
51439;BME280;38816;51.142;-0.974;2022-09-03T08:18:42;99458.63;;;17.18;100.00
51439;BME280;38816;51.142;-0.974;2022-09-03T08:21:12;99451.16;;;17.40;100.00
51439;BME280;38816;51.142;-0.974;2022-09-03T08:23:46;99442.75;;;17.64;100.00
51439;BME280;38816;51.142;-0.974;2022-09-03T08:26:13;99446.47;;;17.90;100.00
51439;BME280;38816;51.142;-0.974;2022-09-03T08:28:41;99440.06;;;18.03;100.00
51439;BME280;38816;51.142;-0.974;2022-09-03T08:31:13;99440.84;;;18.05;100.00
51439;BME280;38816;51.142;-0.974;2022-09-03T08:33:41;99447.72;;;18.08;100.00
51439;BME280;38816;51.142;-0.974;2022-09-03T08:36:21;99450.81;;;18.22;100.00
51439;BME280;38816;51.142;-0.974;2022-09-03T08:38:47;99451.78;;;18.49;100.00
51439;BME280;38816;51.142;-0.974;2022-09-03T08:41:15;99462.75;;;18.91;100.00
51439;BME280;38816;51.142;-0.974;2022-09-03T08:58:24;99466.47;;;20.17;100.00
51439;BME280;38816;51.142;-0.974;2022-09-03T09:00:54;99457.59;;;20.22;100.00
51439;BME280;38816;51.142;-0.974;2022-09-03T09:09:05;99452.16;;;20.54;100.00
51439;BME280;38816;51.142;-0.974;2022-09-03T09:16:49;99465.13;;;20.55;100.00
51439;BME280;38816;51.142;-0.974;2022-09-03T09:19:45;99467.00;;;20.52;100.00
51439;BME280;38816;51.142;-0.974;2022-09-03T09:22:36;99469.81;;;20.45;100.00
51439;BME280;38816;51.142;-0.974;2022-09-03T09:25:07;99465.81;;;20.35;99.52
51439;BME280;38816;51.142;-0.974;2022-09-03T09:27:37;99467.63;;;20.33;99.46
51439;BME280;38816;51.142;-0.974;2022-09-03T09:30:04;99463.44;;;20.29;99.21
51439;BME280;38816;51.142;-0.974;2022-09-03T09:32:29;99471.50;;;20.23;99.16
51439;BME280;38816;51.142;-0.974;2022-09-03T09:34:56;99471.53;;;20.21;99.17
51439;BME280;38816;51.142;-0.974;2022-09-03T09:37:21;99476.91;;;20.17;99.22
51439;BME280;38816;51.142;-0.974;2022-09-03T09:39:59;99481.44;;;20.12;99.00
51439;BME280;38816;51.142;-0.974;2022-09-03T09:42:25;99480.75;;;20.07;100.00
51439;BME280;38816;51.142;-0.974;2022-09-03T09:44:51;99475.69;;;20.02;100.00
51439;BME280;38816;51.142;-0.974;2022-09-03T09:47:24;99482.66;;;20.02;100.00
51439;BME280;38816;51.142;-0.974;2022-09-03T09:49:53;99473.16;;;20.01;100.00
51439;BME280;38816;51.142;-0.974;2022-09-03T09:52:20;99475.59;;;20.05;100.00
51439;BME280;38816;51.142;-0.974;2022-09-03T09:54:50;99484.88;;;20.14;100.00
51439;BME280;38816;51.142;-0.974;2022-09-03T09:57:21;99478.63;;;20.18;100.00
51439;BME280;38816;51.142;-0.974;2022-09-03T09:59:47;99488.84;;;20.24;100.00
51439;BME280;38816;51.142;-0.974;2022-09-03T10:02:24;99488.53;;;20.33;100.00
51439;BME280;38816;51.142;-0.974;2022-09-03T10:05:00;99491.88;;;20.37;98.98
51439;BME280;38816;51.142;-0.974;2022-09-03T10:07:35;99496.19;;;20.38;98.70
51439;BME280;38816;51.142;-0.974;2022-09-03T10:10:06;99482.28;;;20.37;99.22
51439;BME280;38816;51.142;-0.974;2022-09-03T10:12:37;99469.84;;;20.44;99.37
51439;BME280;38816;51.142;-0.974;2022-09-03T10:15:39;99490.75;;;20.69;98.84
51439;BME280;38816;51.142;-0.974;2022-09-03T10:18:35;99479.66;;;20.86;98.29
51439;BME280;38816;51.142;-0.974;2022-09-03T10:21:13;99486.91;;;21.01;97.31
51439;BME280;38816;51.142;-0.974;2022-09-03T10:26:09;99478.09;;;21.04;95.98
51439;BME280;38816;51.142;-0.974;2022-09-03T10:28:37;99484.69;;;21.14;95.42
51439;BME280;38816;51.142;-0.974;2022-09-03T10:33:46;99483.16;;;21.52;93.68
51439;BME280;38816;51.142;-0.974;2022-09-03T10:36:27;99474.53;;;21.72;92.62
51439;BME280;38816;51.142;-0.974;2022-09-03T10:39:04;99466.63;;;21.94;90.16
51439;BME280;38816;51.142;-0.974;2022-09-03T10:41:46;99478.88;;;22.14;88.86
51439;BME280;38816;51.142;-0.974;2022-09-03T10:44:27;99473.72;;;22.11;87.88
51439;BME280;38816;51.142;-0.974;2022-09-03T10:50:16;99467.13;;;22.43;85.76
51439;BME280;38816;51.142;-0.974;2022-09-03T10:55:44;99471.78;;;22.94;83.34
51439;BME280;38816;51.142;-0.974;2022-09-03T10:58:31;99472.41;;;23.18;81.19
51439;BME280;38816;51.142;-0.974;2022-09-03T11:01:17;99470.75;;;23.35;79.94
51439;BME280;38816;51.142;-0.974;2022-09-03T11:03:55;99467.06;;;23.39;77.34
51439;BME280;38816;51.142;-0.974;2022-09-03T11:06:43;99466.47;;;23.15;77.12
51439;BME280;38816;51.142;-0.974;2022-09-03T11:09:17;99464.66;;;22.78;77.88
51439;BME280;38816;51.142;-0.974;2022-09-03T11:11:51;99462.34;;;22.53;79.64
51439;BME280;38816;51.142;-0.974;2022-09-03T11:14:33;99459.75;;;22.51;80.01
51439;BME280;38816;51.142;-0.974;2022-09-03T11:17:12;99467.91;;;22.64;80.01
51439;BME280;38816;51.142;-0.974;2022-09-03T11:19:47;99457.94;;;22.72;79.73
51439;BME280;38816;51.142;-0.974;2022-09-03T11:22:16;99458.66;;;22.75;78.57
51439;BME280;38816;51.142;-0.974;2022-09-03T11:24:45;99462.13;;;22.76;76.09
51439;BME280;38816;51.142;-0.974;2022-09-03T11:29:59;99477.41;;;23.06;75.22
51439;BME280;38816;51.142;-0.974;2022-09-03T11:32:48;99474.69;;;22.88;73.24
51439;BME280;38816;51.142;-0.974;2022-09-03T11:38:19;99468.97;;;22.41;75.96
51439;BME280;38816;51.142;-0.974;2022-09-03T11:41:13;99479.81;;;22.13;76.54
51439;BME280;38816;51.142;-0.974;2022-09-03T11:43:41;99466.59;;;21.73;77.89
51439;BME280;38816;51.142;-0.974;2022-09-03T11:56:41;99475.94;;;21.79;82.14
51439;BME280;38816;51.142;-0.974;2022-09-03T12:01:50;99468.63;;;22.48;80.05
51439;BME280;38816;51.142;-0.974;2022-09-03T12:04:19;99464.50;;;23.01;77.25
51439;BME280;38816;51.142;-0.974;2022-09-03T12:15:11;99466.63;;;24.00;68.66
51439;BME280;38816;51.142;-0.974;2022-09-03T12:17:52;99465.94;;;24.14;68.13
51439;BME280;38816;51.142;-0.974;2022-09-03T12:20:39;99471.72;;;24.03;67.22
51439;BME280;38816;51.142;-0.974;2022-09-03T12:23:05;99469.44;;;23.80;67.65
51439;BME280;38816;51.142;-0.974;2022-09-03T12:25:32;99475.88;;;23.55;68.25
51439;BME280;38816;51.142;-0.974;2022-09-03T12:28:00;99467.41;;;23.31;69.00
51439;BME280;38816;51.142;-0.974;2022-09-03T12:30:28;99470.91;;;23.13;70.18
51439;BME280;38816;51.142;-0.974;2022-09-03T12:33:04;99481.53;;;23.10;70.39
51439;BME280;38816;51.142;-0.974;2022-09-03T12:35:29;99462.38;;;22.90;70.61
51439;BME280;38816;51.142;-0.974;2022-09-03T12:37:55;99477.56;;;22.82;71.63
51439;BME280;38816;51.142;-0.974;2022-09-03T12:40:23;99476.63;;;22.64;71.70
51439;BME280;38816;51.142;-0.974;2022-09-03T12:42:51;99480.88;;;22.67;72.71
51439;BME280;38816;51.142;-0.974;2022-09-03T12:45:24;99483.31;;;23.09;72.54
51439;BME280;38816;51.142;-0.974;2022-09-03T12:47:50;99480.72;;;23.45;71.29
51439;BME280;38816;51.142;-0.974;2022-09-03T12:50:20;99496.97;;;23.71;68.62
51439;BME280;38816;51.142;-0.974;2022-09-03T12:52:55;99475.38;;;23.83;67.70
51439;BME280;38816;51.142;-0.974;2022-09-03T13:00:54;99488.72;;;24.13;64.96
51439;BME280;38816;51.142;-0.974;2022-09-03T13:03:34;99496.81;;;24.26;64.45
51439;BME280;38816;51.142;-0.974;2022-09-03T13:06:07;99491.03;;;24.19;64.02
51439;BME280;38816;51.142;-0.974;2022-09-03T13:08:46;99485.56;;;24.07;65.02
51439;BME280;38816;51.142;-0.974;2022-09-03T13:11:19;99503.34;;;24.02;65.49
51439;BME280;38816;51.142;-0.974;2022-09-03T13:13:53;99490.56;;;23.77;65.50
51439;BME280;38816;51.142;-0.974;2022-09-03T13:25:01;99504.53;;;23.41;66.49
51439;BME280;38816;51.142;-0.974;2022-09-03T13:27:57;99504.97;;;23.32;65.91
51439;BME280;38816;51.142;-0.974;2022-09-03T13:30:37;99513.91;;;23.46;65.53
51439;BME280;38816;51.142;-0.974;2022-09-03T13:33:43;99504.63;;;23.75;65.03
51439;BME280;38816;51.142;-0.974;2022-09-03T13:36:25;99493.44;;;24.07;62.88
51439;BME280;38816;51.142;-0.974;2022-09-03T13:39:01;99486.97;;;24.14;61.85
51439;BME280;38816;51.142;-0.974;2022-09-03T13:41:47;99502.72;;;24.14;62.29
51439;BME280;38816;51.142;-0.974;2022-09-03T13:50:00;99504.19;;;24.37;61.08
51439;BME280;38816;51.142;-0.974;2022-09-03T13:52:58;99504.78;;;24.07;61.10
51439;BME280;38816;51.142;-0.974;2022-09-03T13:58:10;99513.25;;;23.41;61.97
51439;BME280;38816;51.142;-0.974;2022-09-03T14:00:46;99503.94;;;23.17;62.59
51439;BME280;38816;51.142;-0.974;2022-09-03T14:11:45;99521.69;;;23.48;65.20
51439;BME280;38816;51.142;-0.974;2022-09-03T14:14:22;99510.84;;;23.56;64.09
51439;BME280;38816;51.142;-0.974;2022-09-03T14:16:56;99513.28;;;23.59;63.79
51439;BME280;38816;51.142;-0.974;2022-09-03T14:19:47;99511.91;;;23.52;63.25
51439;BME280;38816;51.142;-0.974;2022-09-03T14:25:19;99511.81;;;23.17;63.63
51439;BME280;38816;51.142;-0.974;2022-09-03T14:27:44;99508.28;;;22.99;63.71
51439;BME280;38816;51.142;-0.974;2022-09-03T14:33:12;99526.59;;;22.80;64.10
51439;BME280;38816;51.142;-0.974;2022-09-03T14:38:29;99513.81;;;22.72;64.86
51439;BME280;38816;51.142;-0.974;2022-09-03T14:41:03;99531.50;;;22.88;64.53
51439;BME280;38816;51.142;-0.974;2022-09-03T14:51:55;99514.50;;;22.96;63.10
51439;BME280;38816;51.142;-0.974;2022-09-03T15:11:59;99527.34;;;22.82;65.31
51439;BME280;38816;51.142;-0.974;2022-09-03T15:14:40;99531.31;;;22.92;66.08
51439;BME280;38816;51.142;-0.974;2022-09-03T15:20:21;99555.03;;;23.27;64.59
51439;BME280;38816;51.142;-0.974;2022-09-03T15:23:22;99550.03;;;23.59;64.94
51439;BME280;38816;51.142;-0.974;2022-09-03T15:36:57;99561.41;;;23.40;60.70
51439;BME280;38816;51.142;-0.974;2022-09-03T15:39:31;99541.84;;;22.91;60.99
51439;BME280;38816;51.142;-0.974;2022-09-03T15:42:05;99559.78;;;22.61;59.91
51439;BME280;38816;51.142;-0.974;2022-09-03T15:44:50;99569.06;;;22.27;63.78
51439;BME280;38816;51.142;-0.974;2022-09-03T15:50:34;99582.06;;;22.08;65.29
51439;BME280;38816;51.142;-0.974;2022-09-03T15:55:42;99588.97;;;21.89;63.13
51439;BME280;38816;51.142;-0.974;2022-09-03T16:03:11;99579.16;;;22.57;59.55
51439;BME280;38816;51.142;-0.974;2022-09-03T16:06:15;99586.38;;;22.52;59.87
51439;BME280;38816;51.142;-0.974;2022-09-03T16:08:48;99582.31;;;22.44;58.54
51439;BME280;38816;51.142;-0.974;2022-09-03T16:19:20;99608.16;;;22.10;60.08
51439;BME280;38816;51.142;-0.974;2022-09-03T16:25:03;99592.22;;;21.27;63.00
51439;BME280;38816;51.142;-0.974;2022-09-03T16:27:40;99597.16;;;21.11;64.11
51439;BME280;38816;51.142;-0.974;2022-09-03T16:41:14;99621.88;;;20.54;66.94
51439;BME280;38816;51.142;-0.974;2022-09-03T16:49:25;99613.13;;;20.28;68.31
51439;BME280;38816;51.142;-0.974;2022-09-03T16:52:05;99612.66;;;20.15;68.35
51439;BME280;38816;51.142;-0.974;2022-09-03T17:00:08;99627.84;;;19.76;70.90
51439;BME280;38816;51.142;-0.974;2022-09-03T17:17:11;99632.38;;;19.40;73.95
51439;BME280;38816;51.142;-0.974;2022-09-03T17:20:04;99620.66;;;19.25;74.01
51439;BME280;38816;51.142;-0.974;2022-09-03T17:25:34;99627.47;;;19.29;75.45
51439;BME280;38816;51.142;-0.974;2022-09-03T17:33:53;99626.19;;;19.13;75.40